Parkview, Ohio
Current Conditions -  °F | °C
As of 4:51 AM on Wednesday 22 Oct 2014 (Local Time) from KCLE Reporting Station
Overcast Overcast  
Wind Chill: 42°   Ceiling: 1700
Heat Index: 48°   Visibility: 10mi
Dew Point: 43°   Wind: 15mph
Humidity: 83%   Direction: 20°NNE
Pressure: 30.18"   Gusts: NA
Location:  41.4423°N, 81.8531°W
Report Text: KCLE 220851Z 02013KT 10SM OVC017 09/06 A3018 RMK AO2 SLP222 60000 T00890061 53010 $
Loading
Personal Weather Stations






























Interactive Weather Map
Tropical Storm Tracking
New forecast layout! Learn more

10-Day Weather Forecast

Advertisements
Track Severe Weather on mobile